Time;durP1;ratioP1;P1;durP2;ratioP2;P2;SDS_P1;SDS_P2;PMS_P1;PMS_P2;Temp;Humidity;BMP_temperature;BMP_pressure;BME280_temperature;BME280_humidity;BME280_pressure;Samples;Min_cycle;Max_cycle;Signal;HPM_P1;HPM_P2
2023/09/22 00:02:03;;;;;;;0.30;0.30;;;14.20;99.90;;;;;;5093023;28;20459;-80
2023/09/22 00:04:30;;;;;;;0.40;0.30;;;14.10;99.90;;;;;;5093394;28;20448;-80
2023/09/22 00:06:57;;;;;;;0.57;0.40;;;14.10;99.90;;;;;;5093309;28;20797;-80
2023/09/22 00:09:24;;;;;;;0.50;0.40;;;14.20;99.90;;;;;;5093371;28;20440;-80
2023/09/22 00:11:51;;;;;;;0.30;0.30;;;14.10;99.90;;;;;;5092924;28;20464;-80
2023/09/22 00:14:18;;;;;;;0.40;0.30;;;14.20;99.90;;;;;;5093316;28;20447;-81
2023/09/22 00:16:46;;;;;;;0.40;0.30;;;14.10;99.90;;;;;;5093302;28;20447;-81
2023/09/22 00:19:13;;;;;;;0.70;0.40;;;14.10;99.90;;;;;;5093261;28;20436;-80
2023/09/22 00:21:41;;;;;;;0.50;0.40;;;14.10;99.90;;;;;;5093173;28;20471;-80
2023/09/22 00:24:08;;;;;;;0.40;0.30;;;14.10;99.90;;;;;;5092959;28;20451;-80
2023/09/22 00:26:35;;;;;;;0.70;0.60;;;14.00;99.90;;;;;;5092925;28;20975;-80
2023/09/22 00:29:02;;;;;;;0.40;0.30;;;14.00;99.90;;;;;;5093107;28;20487;-80
2023/09/22 00:31:29;;;;;;;0.47;0.47;;;14.00;99.90;;;;;;5093111;28;20471;-80
2023/09/22 00:33:57;;;;;;;0.60;0.30;;;14.00;99.90;;;;;;5093212;28;20782;-80
2023/09/22 00:36:25;;;;;;;0.40;0.30;;;14.00;99.90;;;;;;5092759;28;20944;-80
2023/09/22 00:38:52;;;;;;;0.40;0.30;;;13.90;99.90;;;;;;5093094;28;20453;-80
2023/09/22 00:41:19;;;;;;;1.13;0.40;;;13.90;99.90;;;;;;5092763;28;20476;-80
2023/09/22 00:43:46;;;;;;;0.30;0.30;;;13.90;99.90;;;;;;5092808;28;20442;-80
2023/09/22 00:46:12;;;;;;;0.40;0.40;;;13.80;99.90;;;;;;5093014;28;20447;-80
2023/09/22 00:48:41;;;;;;;0.40;0.40;;;13.80;99.90;;;;;;5092907;28;20483;-81
2023/09/22 00:51:09;;;;;;;0.77;0.40;;;13.70;99.90;;;;;;5092944;28;20444;-81
2023/09/22 00:53:38;;;;;;;0.50;0.50;;;13.70;99.90;;;;;;5092930;28;20450;-81
2023/09/22 00:56:05;;;;;;;2.33;0.40;;;13.60;99.90;;;;;;5094847;28;20451;-81
2023/09/22 00:58:32;;;;;;;0.40;0.30;;;13.60;99.90;;;;;;5096703;28;20450;-81
2023/09/22 01:00:59;;;;;;;0.40;0.30;;;13.50;99.90;;;;;;5096567;28;20438;-81
2023/09/22 01:03:25;;;;;;;1.10;0.47;;;13.50;99.90;;;;;;5096613;28;20447;-81
2023/09/22 01:05:52;;;;;;;0.40;0.40;;;13.40;99.90;;;;;;5096533;28;20450;-81
2023/09/22 01:08:20;;;;;;;0.53;0.40;;;13.50;99.90;;;;;;5096425;28;20484;-81
2023/09/22 01:10:47;;;;;;;0.30;0.30;;;13.50;99.90;;;;;;5096459;28;20804;-81
2023/09/22 01:13:14;;;;;;;0.40;0.30;;;13.50;99.90;;;;;;5096042;28;20977;-81
2023/09/22 01:15:42;;;;;;;0.30;0.30;;;13.50;99.90;;;;;;5096353;28;20456;-81
2023/09/22 01:18:12;;;;;;;0.40;0.30;;;13.50;99.90;;;;;;5096747;28;20444;-81
2023/09/22 01:20:41;;;;;;;0.77;0.33;;;13.50;99.90;;;;;;5096372;28;20428;-81
2023/09/22 01:23:11;;;;;;;0.77;0.40;;;13.50;99.90;;;;;;5095837;28;20976;-81
2023/09/22 01:25:39;;;;;;;1.23;0.90;;;13.50;99.90;;;;;;5096238;28;20436;-81
2023/09/22 01:28:06;;;;;;;0.40;0.30;;;13.50;99.90;;;;;;5095805;28;20517;-82
2023/09/22 01:30:33;;;;;;;0.30;0.30;;;13.50;99.90;;;;;;5096030;28;20449;-82
2023/09/22 01:33:02;;;;;;;1.90;0.60;;;13.50;99.90;;;;;;5095678;28;20464;-82
2023/09/22 01:35:31;;;;;;;1.03;0.40;;;13.50;99.90;;;;;;5096039;28;20792;-81
2023/09/22 01:38:03;;;;;;;0.40;0.30;;;13.50;99.90;;;;;;5095645;28;20447;-81
2023/09/22 01:40:31;;;;;;;0.40;0.40;;;13.60;99.90;;;;;;5095745;28;20428;-81
2023/09/22 01:42:58;;;;;;;0.40;0.30;;;13.60;99.90;;;;;;5095968;28;20467;-82
2023/09/22 01:45:24;;;;;;;0.90;0.50;;;13.60;99.90;;;;;;5095480;28;20501;-82
2023/09/22 01:47:51;;;;;;;0.40;0.30;;;13.60;99.90;;;;;;5095696;28;20479;-82
2023/09/22 01:50:19;;;;;;;0.70;0.63;;;13.60;99.90;;;;;;5095735;28;20795;-82
2023/09/22 01:52:45;;;;;;;0.30;0.30;;;13.60;99.90;;;;;;5095632;28;20463;-82
2023/09/22 01:55:12;;;;;;;0.50;0.30;;;13.60;99.90;;;;;;5095640;28;20439;-81
2023/09/22 01:57:40;;;;;;;1.17;0.80;;;13.50;99.90;;;;;;5095307;28;20963;-81
2023/09/22 02:00:10;;;;;;;0.40;0.30;;;13.60;99.90;;;;;;5095554;28;20451;-81
2023/09/22 02:02:42;;;;;;;0.70;0.30;;;13.60;99.90;;;;;;5095190;28;21002;-82
2023/09/22 02:05:09;;;;;;;0.50;0.40;;;14.10;99.90;;;;;;5095167;28;20916;-81
2023/09/22 02:07:36;;;;;;;0.60;0.40;;;13.60;99.90;;;;;;5094770;28;20448;-81
2023/09/22 02:10:04;;;;;;;0.40;0.40;;;13.60;99.90;;;;;;5095335;28;20444;-81
2023/09/22 02:12:30;;;;;;;0.70;0.70;;;13.60;99.90;;;;;;5095266;28;20562;-81
2023/09/22 02:15:00;;;;;;;0.70;0.40;;;13.70;99.90;;;;;;5095258;28;20451;-81
2023/09/22 02:17:27;;;;;;;0.60;0.40;;;13.60;99.90;;;;;;5095208;28;20474;-81
2023/09/22 02:19:54;;;;;;;0.43;0.33;;;13.60;99.90;;;;;;5094844;28;20444;-81
2023/09/22 02:22:20;;;;;;;0.40;0.30;;;13.70;99.90;;;;;;5095850;28;20468;-81
2023/09/22 02:24:47;;;;;;;0.30;0.30;;;13.60;99.90;;;;;;5094819;28;20956;-81
2023/09/22 02:27:14;;;;;;;0.30;0.30;;;13.60;99.90;;;;;;5094937;28;20505;-81
2023/09/22 02:29:41;;;;;;;0.40;0.30;;;13.70;99.90;;;;;;5094875;28;20566;-81
2023/09/22 02:32:09;;;;;;;0.77;0.40;;;13.60;99.90;;;;;;5094511;28;20980;-82
2023/09/22 02:34:36;;;;;;;0.47;0.37;;;13.70;99.90;;;;;;5094861;28;20444;-82
2023/09/22 02:37:03;;;;;;;0.30;0.30;;;13.70;99.90;;;;;;5094823;28;20450;-81
2023/09/22 02:39:30;;;;;;;0.30;0.30;;;13.70;99.90;;;;;;5094747;28;20436;-81
2023/09/22 02:41:55;;;;;;;0.30;0.20;;;13.70;99.90;;;;;;5094320;28;20984;-81
2023/09/22 02:44:22;;;;;;;0.30;0.30;;;13.70;99.90;;;;;;5095252;28;20454;-81
2023/09/22 02:46:49;;;;;;;0.50;0.40;;;13.70;99.90;;;;;;5094906;28;20579;-82
2023/09/22 02:49:17;;;;;;;0.40;0.40;;;13.70;99.90;;;;;;5094168;28;20490;-81
2023/09/22 02:51:44;;;;;;;0.50;0.30;;;13.50;99.90;;;;;;5094474;28;20467;-81
2023/09/22 02:54:10;;;;;;;0.50;0.30;;;13.50;99.90;;;;;;5094273;28;20963;-81
2023/09/22 02:56:37;;;;;;;0.30;0.30;;;13.50;99.90;;;;;;5094442;28;20452;-82
2023/09/22 02:59:04;;;;;;;1.37;0.40;;;13.50;99.90;;;;;;5094346;28;20440;-81
2023/09/22 03:01:31;;;;;;;0.30;0.30;;;13.50;99.90;;;;;;5094261;28;20471;-82
2023/09/22 03:03:57;;;;;;;0.93;0.40;;;13.50;99.90;;;;;;5094046;28;20803;-81
2023/09/22 03:06:25;;;;;;;0.47;0.43;;;13.60;99.90;;;;;;5094261;28;20439;-82
2023/09/22 03:08:52;;;;;;;0.57;0.30;;;13.60;99.90;;;;;;5093804;28;20487;-82
2023/09/22 03:11:19;;;;;;;0.40;0.40;;;13.60;99.90;;;;;;5094115;28;20460;-81
2023/09/22 03:13:47;;;;;;;1.13;0.50;;;13.60;99.90;;;;;;5093786;28;20933;-81
2023/09/22 03:16:14;;;;;;;0.73;0.37;;;13.70;99.90;;;;;;5094070;28;20483;-82
2023/09/22 03:18:41;;;;;;;0.40;0.30;;;13.70;99.90;;;;;;5093198;28;20787;-81
2023/09/22 03:21:08;;;;;;;0.53;0.53;;;13.70;99.90;;;;;;5093613;28;20432;-82
2023/09/22 03:23:36;;;;;;;0.90;0.40;;;13.70;99.90;;;;;;5093647;28;20941;-82
2023/09/22 03:26:03;;;;;;;0.60;0.30;;;13.70;99.90;;;;;;5093928;28;20451;-81
2023/09/22 03:28:30;;;;;;;0.60;0.30;;;13.60;99.90;;;;;;5093777;28;20475;-81
2023/09/22 03:30:58;;;;;;;0.50;0.50;;;13.60;99.90;;;;;;5093715;28;20442;-81
2023/09/22 03:33:25;;;;;;;0.60;0.40;;;13.60;99.90;;;;;;5093782;28;20522;-81
2023/09/22 03:35:52;;;;;;;0.90;0.30;;;13.60;99.90;;;;;;5093898;28;20527;-81
2023/09/22 03:38:19;;;;;;;5.13;0.63;;;13.50;99.90;;;;;;5093757;28;20897;-81
2023/09/22 03:40:47;;;;;;;0.50;0.40;;;13.40;99.90;;;;;;5093580;28;20486;-81
2023/09/22 03:43:13;;;;;;;0.37;0.30;;;13.30;99.90;;;;;;5093609;28;20467;-82
2023/09/22 03:45:40;;;;;;;0.40;0.30;;;13.40;99.90;;;;;;5093642;28;20815;-82
2023/09/22 03:48:08;;;;;;;2.80;0.57;;;13.50;99.90;;;;;;5093179;28;20959;-81
2023/09/22 03:50:36;;;;;;;0.80;0.47;;;13.50;99.90;;;;;;5093622;28;20479;-81
2023/09/22 03:53:03;;;;;;;2.40;0.60;;;13.50;99.90;;;;;;5093535;28;20512;-81
2023/09/22 03:55:31;;;;;;;0.50;0.30;;;13.60;99.90;;;;;;5093613;28;20816;-82
2023/09/22 03:57:59;;;;;;;0.50;0.40;;;13.60;99.90;;;;;;5093550;28;20448;-82
2023/09/22 04:00:28;;;;;;;0.40;0.30;;;13.70;99.90;;;;;;5093174;28;20811;-81
2023/09/22 04:02:55;;;;;;;0.40;0.40;;;13.60;99.90;;;;;;5093345;28;20464;-82
2023/09/22 04:05:22;;;;;;;0.50;0.30;;;13.60;99.90;;;;;;5093386;28;20451;-81
2023/09/22 04:07:48;;;;;;;0.40;0.30;;;13.50;99.90;;;;;;5093099;28;20440;-82
2023/09/22 04:10:16;;;;;;;0.40;0.40;;;13.60;99.90;;;;;;5093463;28;20486;-82
2023/09/22 04:12:43;;;;;;;0.60;0.40;;;13.50;99.90;;;;;;5093297;28;20474;-82
2023/09/22 04:15:12;;;;;;;1.07;0.40;;;13.50;99.90;;;;;;5093279;28;20455;-82
2023/09/22 04:17:38;;;;;;;0.63;0.30;;;13.50;99.90;;;;;;5093092;28;20810;-82
2023/09/22 04:20:07;;;;;;;0.40;0.30;;;13.50;99.90;;;;;;5093364;28;20443;-82
2023/09/22 04:22:34;;;;;;;0.63;0.30;;;13.50;99.90;;;;;;5092999;28;20558;-83
2023/09/22 04:25:08;;;;;;;0.77;0.40;;;13.50;99.90;;;;;;5093325;28;20822;-82
2023/09/22 04:27:40;;;;;;;1.53;0.40;;;13.60;99.90;;;;;;5093237;28;20482;-82
2023/09/22 04:30:11;;;;;;;0.40;0.30;;;13.60;99.90;;;;;;5093402;28;20475;-82
2023/09/22 04:32:39;;;;;;;0.40;0.33;;;13.60;99.90;;;;;;5097245;28;20506;-83
2023/09/22 04:35:09;;;;;;;0.37;0.30;;;13.60;99.90;;;;;;5096959;28;20443;-82
2023/09/22 04:37:36;;;;;;;0.37;0.37;;;13.70;99.90;;;;;;5097338;28;20448;-82
2023/09/22 04:40:09;;;;;;;0.40;0.30;;;13.80;99.90;;;;;;5097278;28;20442;-82
2023/09/22 04:42:36;;;;;;;0.40;0.30;;;13.80;99.90;;;;;;5096889;28;20525;-82
2023/09/22 04:45:04;;;;;;;0.40;0.40;;;13.80;99.90;;;;;;5096868;28;20440;-82
2023/09/22 04:47:30;;;;;;;0.40;0.30;;;13.80;99.90;;;;;;5097107;28;20447;-82
2023/09/22 04:49:58;;;;;;;0.40;0.33;;;13.80;99.90;;;;;;5096583;28;20833;-82
2023/09/22 04:52:25;;;;;;;0.50;0.30;;;13.80;99.90;;;;;;5096667;28;20472;-82
2023/09/22 04:54:52;;;;;;;0.40;0.40;;;13.80;99.90;;;;;;5096928;28;20455;-82
2023/09/22 04:57:19;;;;;;;2.10;0.40;;;13.90;99.90;;;;;;5096826;28;20502;-82
2023/09/22 04:59:46;;;;;;;1.23;0.40;;;14.00;99.90;;;;;;5096709;28;20438;-82
2023/09/22 05:02:13;;;;;;;0.90;0.40;;;13.90;99.90;;;;;;5096516;28;20502;-82
2023/09/22 05:04:40;;;;;;;0.40;0.30;;;13.90;99.90;;;;;;5096688;28;20443;-82
2023/09/22 05:07:09;;;;;;;0.70;0.30;;;13.80;99.90;;;;;;5096651;28;20436;-83
2023/09/22 05:09:36;;;;;;;2.00;0.40;;;13.80;99.90;;;;;;5096533;28;20475;-82
2023/09/22 05:12:03;;;;;;;0.33;0.30;;;13.80;99.90;;;;;;5096917;28;20863;-82
2023/09/22 05:14:29;;;;;;;0.33;0.30;;;13.80;99.90;;;;;;5099876;28;20447;-83
2023/09/22 05:16:56;;;;;;;0.40;0.30;;;13.80;99.90;;;;;;5096426;28;20443;-82
2023/09/22 05:19:23;;;;;;;0.40;0.30;;;13.80;99.90;;;;;;5096374;28;20432;-83
2023/09/22 05:21:50;;;;;;;1.00;0.50;;;13.80;99.90;;;;;;5096332;28;20494;-82
2023/09/22 05:24:18;;;;;;;0.47;0.47;;;13.80;99.90;;;;;;5096062;28;20444;-83
2023/09/22 05:26:45;;;;;;;0.50;0.40;;;13.90;99.90;;;;;;5096096;28;20951;-82
2023/09/22 05:29:11;;;;;;;0.40;0.30;;;13.80;99.90;;;;;;5096123;28;21102;-83
2023/09/22 05:31:38;;;;;;;1.17;0.40;;;13.70;99.90;;;;;;5096314;28;20470;-83
2023/09/22 05:34:05;;;;;;;0.60;0.30;;;13.70;99.90;;;;;;5096181;28;20444;-82
2023/09/22 05:36:32;;;;;;;0.40;0.40;;;13.70;99.90;;;;;;5096048;28;20451;-83
2023/09/22 05:38:59;;;;;;;0.40;0.40;;;13.80;99.90;;;;;;5095979;28;20851;-83
2023/09/22 05:41:28;;;;;;;0.40;0.33;;;13.80;99.90;;;;;;5095930;28;20538;-83
2023/09/22 05:43:56;;;;;;;0.43;0.40;;;13.80;99.90;;;;;;5095535;28;20539;-83
2023/09/22 05:46:23;;;;;;;0.60;0.40;;;13.90;99.90;;;;;;5096262;28;20440;-83
2023/09/22 05:48:52;;;;;;;1.43;0.80;;;13.90;99.90;;;;;;5096524;28;20471;-83
2023/09/22 05:51:20;;;;;;;0.40;0.30;;;13.90;99.90;;;;;;5096053;28;20503;-83
2023/09/22 05:53:46;;;;;;;1.70;0.50;;;13.80;99.90;;;;;;5095824;28;20852;-83
2023/09/22 05:56:13;;;;;;;0.37;0.30;;;13.80;99.90;;;;;;5095834;28;20448;-83
2023/09/22 05:58:41;;;;;;;0.50;0.40;;;13.80;99.90;;;;;;5095606;28;20448;-83
2023/09/22 06:01:09;;;;;;;0.30;0.30;;;13.80;99.90;;;;;;5095407;28;20440;-83
2023/09/22 06:03:37;;;;;;;0.40;0.40;;;13.90;99.90;;;;;;5095541;28;20452;-83
2023/09/22 06:06:08;;;;;;;1.23;0.30;;;13.90;99.90;;;;;;5095471;28;20447;-83
2023/09/22 06:08:34;;;;;;;0.43;0.30;;;13.90;99.90;;;;;;5095159;28;20428;-83
2023/09/22 06:11:01;;;;;;;5.20;0.40;;;14.00;99.90;;;;;;5094887;28;20849;-83
2023/09/22 06:13:28;;;;;;;0.40;0.40;;;14.00;99.90;;;;;;5095002;28;20455;-83
2023/09/22 06:15:57;;;;;;;0.53;0.53;;;14.00;99.90;;;;;;5095255;28;20488;-83
2023/09/22 06:18:24;;;;;;;0.40;0.37;;;14.00;99.90;;;;;;5094935;28;20996;-83
2023/09/22 06:20:54;;;;;;;0.50;0.40;;;14.00;99.90;;;;;;5095213;28;20538;-84
2023/09/22 06:23:21;;;;;;;0.63;0.40;;;14.00;99.90;;;;;;5094868;28;20988;-83
2023/09/22 06:25:48;;;;;;;0.40;0.30;;;14.00;99.90;;;;;;5095076;28;20447;-83
2023/09/22 06:28:15;;;;;;;0.30;0.30;;;14.00;99.90;;;;;;5094761;28;20436;-83
2023/09/22 06:30:42;;;;;;;0.77;0.40;;;14.00;99.90;;;;;;5094952;28;20479;-84
2023/09/22 06:33:10;;;;;;;0.53;0.30;;;14.50;99.90;;;;;;5094863;28;20523;-83
2023/09/22 06:35:37;;;;;;;0.40;0.30;;;14.10;99.90;;;;;;5094877;28;20466;-83
2023/09/22 06:38:06;;;;;;;0.90;0.57;;;14.20;99.90;;;;;;5094594;28;20956;-83
2023/09/22 06:40:35;;;;;;;0.60;0.30;;;14.10;99.90;;;;;;5094649;28;20447;-84
2023/09/22 06:43:04;;;;;;;0.70;0.40;;;14.20;99.90;;;;;;5094379;28;20464;-83
2023/09/22 06:45:32;;;;;;;0.40;0.40;;;14.20;99.90;;;;;;5094356;28;20945;-83
2023/09/22 06:47:59;;;;;;;0.43;0.43;;;14.10;99.90;;;;;;5094325;28;20948;-84
2023/09/22 06:50:29;;;;;;;0.63;0.40;;;14.20;99.90;;;;;;5094480;28;20487;-83
2023/09/22 06:52:55;;;;;;;0.40;0.30;;;14.00;99.90;;;;;;5094443;28;20467;-83
2023/09/22 06:55:25;;;;;;;0.30;0.30;;;14.10;99.90;;;;;;5094214;28;20818;-83
2023/09/22 06:57:52;;;;;;;0.30;0.30;;;14.10;99.90;;;;;;5094431;28;20539;-82
2023/09/22 07:00:22;;;;;;;0.80;0.40;;;14.20;99.90;;;;;;5094125;28;20553;-83
2023/09/22 07:02:49;;;;;;;1.50;0.50;;;14.10;99.90;;;;;;5094285;28;20468;-82
2023/09/22 07:05:17;;;;;;;0.40;0.33;;;14.10;99.90;;;;;;5094304;28;20479;-83
2023/09/22 07:07:45;;;;;;;0.40;0.30;;;14.10;99.90;;;;;;5093913;28;20455;-83
2023/09/22 07:10:12;;;;;;;0.30;0.30;;;14.10;99.90;;;;;;5094160;28;20486;-83
2023/09/22 07:12:40;;;;;;;0.30;0.20;;;14.10;99.90;;;;;;5094071;28;20464;-83
2023/09/22 07:15:08;;;;;;;0.83;0.40;;;14.10;99.90;;;;;;5094154;28;20447;-83
2023/09/22 07:17:35;;;;;;;0.40;0.40;;;14.10;99.90;;;;;;5096383;28;20444;-83
2023/09/22 07:20:04;;;;;;;0.40;0.30;;;14.00;99.90;;;;;;5095845;28;20440;-84
2023/09/22 07:22:32;;;;;;;0.40;0.30;;;14.10;99.90;;;;;;5094025;28;20517;-83
2023/09/22 07:25:00;;;;;;;1.13;0.40;;;14.10;99.90;;;;;;5094003;28;20455;-84
2023/09/22 07:27:27;;;;;;;0.40;0.30;;;14.10;99.90;;;;;;5093909;28;20517;-83
2023/09/22 07:29:54;;;;;;;0.60;0.40;;;14.10;99.90;;;;;;5093805;28;20480;-84
2023/09/22 07:32:21;;;;;;;2.00;0.40;;;14.20;99.90;;;;;;5093788;28;20460;-84
2023/09/22 07:34:49;;;;;;;0.30;0.30;;;14.20;99.90;;;;;;5093917;28;20447;-84
2023/09/22 07:37:17;;;;;;;0.40;0.30;;;14.20;99.90;;;;;;5093552;28;20455;-84
2023/09/22 07:39:44;;;;;;;0.40;0.30;;;14.30;99.90;;;;;;5093771;28;20462;-84
2023/09/22 07:42:12;;;;;;;0.40;0.40;;;14.40;99.90;;;;;;5093280;28;20479;-84
2023/09/22 07:44:40;;;;;;;0.40;0.30;;;14.40;99.90;;;;;;5093771;28;20487;-84
2023/09/22 07:47:10;;;;;;;0.43;0.43;;;14.50;99.90;;;;;;5093654;28;20459;-82
2023/09/22 07:49:37;;;;;;;0.80;0.47;;;14.40;99.90;;;;;;5093633;28;20475;-81
2023/09/22 07:52:04;;;;;;;0.30;0.30;;;14.50;99.90;;;;;;5093278;28;20463;-83
2023/09/22 07:54:33;;;;;;;0.40;0.30;;;14.50;99.90;;;;;;5093564;28;20440;-83
2023/09/22 07:57:01;;;;;;;0.83;0.50;;;14.60;99.90;;;;;;5093443;28;20452;-83
2023/09/22 07:59:30;;;;;;;0.40;0.30;;;14.60;99.90;;;;;;5093523;28;20459;-83
2023/09/22 08:01:59;;;;;;;5.50;0.53;;;14.60;99.90;;;;;;5093129;28;20538;-83
2023/09/22 08:04:26;;;;;;;0.40;0.37;;;14.50;99.90;;;;;;5093372;28;20920;-83
2023/09/22 08:06:53;;;;;;;0.30;0.30;;;14.60;99.90;;;;;;5092995;28;20428;-83
2023/09/22 08:09:19;;;;;;;4.53;0.40;;;14.50;99.90;;;;;;5093291;28;20463;-83
2023/09/22 08:11:47;;;;;;;0.50;0.50;;;14.50;99.90;;;;;;5093194;28;20532;-83
2023/09/22 08:14:13;;;;;;;0.47;0.40;;;14.60;99.90;;;;;;5093344;28;20455;-83
2023/09/22 08:16:42;;;;;;;0.40;0.40;;;14.70;99.90;;;;;;5093029;28;20539;-83
2023/09/22 08:19:11;;;;;;;0.40;0.40;;;14.80;99.90;;;;;;5093312;28;20530;-83
2023/09/22 08:21:38;;;;;;;0.40;0.40;;;14.90;99.90;;;;;;5093194;28;20471;-83
2023/09/22 08:24:07;;;;;;;0.90;0.57;;;15.00;99.90;;;;;;5092916;28;20848;-83
2023/09/22 08:26:34;;;;;;;0.50;0.50;;;15.00;99.90;;;;;;5093342;28;20433;-83
2023/09/22 08:29:01;;;;;;;0.40;0.30;;;15.10;99.90;;;;;;5093245;28;20447;-83
2023/09/22 08:31:29;;;;;;;0.30;0.30;;;15.20;99.90;;;;;;5093054;28;20484;-83
2023/09/22 08:33:58;;;;;;;0.40;0.30;;;15.30;99.90;;;;;;5093213;28;20435;-83
2023/09/22 08:36:25;;;;;;;0.70;0.37;;;15.40;99.90;;;;;;5093153;28;20448;-83
2023/09/22 08:38:52;;;;;;;0.30;0.30;;;15.50;99.90;;;;;;5092852;28;20519;-83
2023/09/22 08:41:19;;;;;;;0.40;0.30;;;15.50;99.90;;;;;;5092598;28;20525;-83
2023/09/22 08:43:46;;;;;;;0.77;0.47;;;15.50;99.90;;;;;;5092938;28;20496;-83
2023/09/22 08:46:13;;;;;;;0.50;0.50;;;15.60;99.90;;;;;;5093129;28;20450;-84
2023/09/22 08:48:39;;;;;;;0.43;0.40;;;15.50;99.90;;;;;;5093093;28;20440;-83
2023/09/22 08:51:09;;;;;;;0.50;0.50;;;15.50;99.90;;;;;;5092736;28;20486;-84
2023/09/22 08:53:36;;;;;;;3.40;0.60;;;15.50;99.90;;;;;;5093155;28;20436;-82
2023/09/22 08:56:06;;;;;;;1.00;0.37;;;15.60;99.90;;;;;;5092787;28;20433;-84
2023/09/22 08:58:34;;;;;;;0.30;0.30;;;15.50;99.90;;;;;;5092714;28;20547;-84
2023/09/22 09:01:02;;;;;;;0.40;0.40;;;15.60;99.90;;;;;;5093011;28;20490;-83
2023/09/22 09:03:31;;;;;;;0.50;0.50;;;15.60;99.90;;;;;;5093007;28;20514;-83
2023/09/22 09:06:07;;;;;;;0.70;0.40;;;15.50;99.90;;;;;;5092955;28;20527;-84
2023/09/22 09:08:35;;;;;;;0.60;0.37;;;15.60;99.90;;;;;;5093235;28;20852;-83
2023/09/22 09:11:07;;;;;;;0.47;0.47;;;15.70;99.90;;;;;;5092415;28;20483;-83
2023/09/22 09:13:35;;;;;;;0.80;0.40;;;15.70;99.90;;;;;;5093128;28;20522;-84
2023/09/22 09:16:06;;;;;;;0.50;0.50;;;15.70;99.90;;;;;;5093145;28;20909;-84
2023/09/22 09:18:34;;;;;;;0.70;0.47;;;15.80;99.90;;;;;;5096296;28;20428;-84
2023/09/22 09:21:10;;;;;;;0.53;0.37;;;15.80;99.90;;;;;;5097283;28;20446;-84
2023/09/22 09:23:38;;;;;;;2.73;0.40;;;15.90;99.90;;;;;;5096527;28;20432;-85
2023/09/22 09:26:05;;;;;;;0.30;0.30;;;15.90;99.90;;;;;;5097327;28;20444;-84
2023/09/22 09:28:32;;;;;;;0.70;0.60;;;15.90;99.90;;;;;;5099809;28;20448;-83
2023/09/22 09:31:00;;;;;;;0.50;0.40;;;15.80;99.90;;;;;;5101528;28;20840;-84
2023/09/22 09:33:30;;;;;;;0.80;0.40;;;15.80;99.90;;;;;;5096000;28;20924;-85
2023/09/22 09:35:57;;;;;;;0.50;0.40;;;15.90;99.90;;;;;;5096258;28;20459;-85
2023/09/22 09:38:27;;;;;;;0.30;0.30;;;15.90;99.90;;;;;;5096208;28;20483;-84
2023/09/22 09:40:55;;;;;;;2.87;0.50;;;15.90;99.90;;;;;;5096093;28;20529;-84
2023/09/22 09:43:22;;;;;;;0.40;0.30;;;15.90;99.90;;;;;;5096931;28;20787;-85
2023/09/22 09:45:50;;;;;;;0.50;0.43;;;15.90;99.90;;;;;;5096505;28;20806;-85
2023/09/22 09:48:17;;;;;;;0.40;0.40;;;16.00;99.90;;;;;;5097103;28;20790;-85
2023/09/22 09:50:46;;;;;;;0.40;0.40;;;16.00;99.90;;;;;;5096254;28;20479;-85
2023/09/22 09:53:31;;;;;;;0.97;0.40;;;16.10;99.90;;;;;;5096105;28;20487;-85
2023/09/22 09:55:59;;;;;;;0.40;0.40;;;16.20;99.90;;;;;;5096027;28;20439;-84
2023/09/22 09:58:29;;;;;;;0.40;0.30;;;16.10;99.90;;;;;;5095420;28;20474;-84
2023/09/22 10:00:57;;;;;;;0.50;0.37;;;16.10;99.90;;;;;;5096385;28;20489;-83
2023/09/22 10:03:25;;;;;;;0.30;0.30;;;16.10;99.90;;;;;;5095923;28;20501;-84
2023/09/22 10:05:55;;;;;;;0.30;0.30;;;16.10;99.90;;;;;;5096001;28;20498;-83
2023/09/22 10:08:23;;;;;;;3.90;0.30;;;16.20;99.90;;;;;;5095784;28;20551;-83
2023/09/22 10:10:53;;;;;;;0.67;0.40;;;16.30;99.90;;;;;;5095526;28;20571;-83
2023/09/22 10:13:21;;;;;;;0.50;0.50;;;16.60;99.90;;;;;;5095193;28;20995;-84
2023/09/22 10:15:56;;;;;;;0.67;0.30;;;16.80;99.90;;;;;;5095881;28;20433;-83
2023/09/22 10:18:24;;;;;;;0.30;0.30;;;17.00;99.90;;;;;;5095501;28;20475;-84
2023/09/22 10:20:51;;;;;;;0.40;0.30;;;17.30;99.90;;;;;;5095392;28;20416;-82
2023/09/22 10:23:22;;;;;;;0.30;0.30;;;17.40;99.90;;;;;;5094964;28;21006;-82
2023/09/22 10:26:16;;;;;;;0.40;0.40;;;17.50;99.90;;;;;;5095247;28;20439;-82
2023/09/22 10:28:44;;;;;;;0.40;0.30;;;17.60;99.90;;;;;;5094669;28;20447;-81
2023/09/22 10:31:11;;;;;;;0.40;0.30;;;17.60;99.90;;;;;;5094912;28;20832;-82
2023/09/22 10:33:38;;;;;;;0.40;0.30;;;17.80;99.90;;;;;;5095120;28;20477;-82
2023/09/22 10:36:07;;;;;;;0.30;0.30;;;18.00;99.90;;;;;;5094665;28;20905;-82
2023/09/22 10:38:56;;;;;;;0.33;0.30;;;18.30;99.90;;;;;;5094558;28;20507;-82
2023/09/22 10:41:24;;;;;;;4.20;0.40;;;18.50;99.90;;;;;;5089879;28;20480;-83
2023/09/22 10:43:58;;;;;;;0.40;0.30;;;18.40;99.90;;;;;;5094491;28;20817;-83
2023/09/22 10:46:26;;;;;;;0.47;0.40;;;18.30;99.90;;;;;;5094446;28;20435;-83
2023/09/22 10:48:52;;;;;;;1.13;0.40;;;18.20;99.90;;;;;;5094333;28;20443;-83
2023/09/22 10:51:22;;;;;;;0.30;0.30;;;18.00;99.90;;;;;;5094467;28;20835;-83
2023/09/22 10:53:59;;;;;;;0.40;0.30;;;18.10;99.90;;;;;;5094643;28;20444;-83
2023/09/22 10:56:28;;;;;;;0.50;0.30;;;18.00;99.90;;;;;;5094387;28;20965;-84
2023/09/22 10:58:54;;;;;;;0.60;0.37;;;17.80;99.90;;;;;;5094443;28;20452;-84
2023/09/22 11:01:22;;;;;;;1.13;0.37;;;17.90;99.90;;;;;;5094412;28;20460;-82
2023/09/22 11:03:53;;;;;;;0.40;0.40;;;18.10;99.90;;;;;;5094557;28;20448;-84
2023/09/22 11:06:21;;;;;;;0.60;0.30;;;18.30;99.90;;;;;;5094143;28;20455;-83
2023/09/22 11:08:50;;;;;;;3.13;0.40;;;18.40;99.90;;;;;;5094117;28;21002;-84
2023/09/22 11:11:17;;;;;;;1.60;0.30;;;18.40;99.90;;;;;;5094263;28;20484;-83
2023/09/22 11:13:53;;;;;;;0.37;0.30;;;18.30;99.90;;;;;;5094175;28;20440;-83
2023/09/22 11:16:20;;;;;;;0.70;0.40;;;18.10;99.90;;;;;;5094110;28;20431;-84
2023/09/22 11:18:48;;;;;;;0.40;0.30;;;18.00;99.90;;;;;;5093964;28;20408;-84
2023/09/22 11:21:15;;;;;;;0.53;0.40;;;17.90;99.90;;;;;;5094074;28;20501;-84
2023/09/22 11:23:43;;;;;;;0.40;0.30;;;17.70;99.90;;;;;;5093765;28;20826;-85
2023/09/22 11:26:11;;;;;;;0.50;0.30;;;17.60;99.90;;;;;;5093936;28;20439;-84
2023/09/22 11:28:41;;;;;;;0.30;0.30;;;17.60;99.90;;;;;;5094078;28;20444;-85
2023/09/22 11:31:12;;;;;;;1.13;0.40;;;17.70;99.90;;;;;;5094357;28;20472;-84
2023/09/22 11:33:39;;;;;;;0.40;0.30;;;17.70;99.90;;;;;;5093920;28;20467;-84
2023/09/22 11:36:07;;;;;;;0.70;0.30;;;17.60;99.90;;;;;;5093946;28;20948;-84
2023/09/22 11:38:35;;;;;;;0.40;0.30;;;17.60;99.90;;;;;;5093739;28;20435;-83
2023/09/22 11:41:08;;;;;;;0.40;0.30;;;17.70;99.90;;;;;;5093186;28;20467;-84
2023/09/22 11:43:38;;;;;;;0.53;0.30;;;17.80;99.90;;;;;;5094592;28;20830;-85
2023/09/22 11:46:07;;;;;;;2.73;0.40;;;17.80;99.90;;;;;;5093951;28;20524;-85
2023/09/22 11:48:59;;;;;;;1.13;0.50;;;17.80;99.90;;;;;;5093466;28;20424;-84
2023/09/22 11:51:50;;;;;;;0.30;0.30;;;17.70;99.90;;;;;;5093659;28;20498;-83
2023/09/22 11:54:19;;;;;;;0.50;0.30;;;17.70;99.90;;;;;;5093762;28;20491;-84
2023/09/22 11:56:46;;;;;;;0.40;0.37;;;17.80;99.90;;;;;;5093363;28;20780;-84
2023/09/22 11:59:14;;;;;;;0.30;0.30;;;17.90;99.90;;;;;;5093546;28;20440;-85
2023/09/22 12:01:42;;;;;;;0.63;0.57;;;18.00;99.90;;;;;;5093431;28;20460;-84
2023/09/22 12:04:10;;;;;;;0.40;0.40;;;18.00;99.90;;;;;;5093584;28;20444;-84
2023/09/22 12:06:37;;;;;;;0.97;0.40;;;17.90;99.90;;;;;;5093398;28;20455;-84
2023/09/22 12:09:04;;;;;;;0.37;0.30;;;17.90;99.90;;;;;;5093156;28;20496;-84
2023/09/22 12:11:32;;;;;;;0.40;0.40;;;17.70;99.90;;;;;;5093245;28;20483;-84
2023/09/22 12:14:00;;;;;;;0.60;0.40;;;17.70;99.90;;;;;;5093469;28;20455;-84
2023/09/22 12:16:27;;;;;;;0.97;0.30;;;17.70;99.90;;;;;;5093441;28;20446;-84
2023/09/22 12:18:54;;;;;;;0.30;0.30;;;17.70;99.90;;;;;;5093433;28;20448;-84
2023/09/22 12:21:22;;;;;;;0.80;0.30;;;17.80;99.90;;;;;;5093406;28;20456;-85
2023/09/22 12:23:49;;;;;;;0.40;0.40;;;17.70;99.90;;;;;;5093345;28;20440;-86
2023/09/22 12:26:16;;;;;;;0.57;0.37;;;17.90;99.90;;;;;;5093083;28;20952;-84
2023/09/22 12:28:43;;;;;;;1.50;0.50;;;18.00;99.90;;;;;;5093386;28;20431;-84
2023/09/22 12:31:10;;;;;;;0.40;0.30;;;17.90;99.90;;;;;;5093122;28;20488;-84
2023/09/22 12:33:38;;;;;;;2.60;0.40;;;17.90;99.90;;;;;;5093278;28;20509;-85
2023/09/22 12:36:05;;;;;;;0.40;0.30;;;18.00;99.90;;;;;;5093255;28;20440;-85
2023/09/22 12:38:33;;;;;;;0.40;0.30;;;18.00;99.90;;;;;;5092798;28;20821;-84
2023/09/22 12:41:00;;;;;;;2.93;0.37;;;18.00;99.90;;;;;;5092927;28;20476;-84
2023/09/22 12:43:26;;;;;;;0.40;0.37;;;17.90;99.90;;;;;;5093193;28;20446;-84
2023/09/22 12:45:53;;;;;;;1.83;0.40;;;17.70;99.90;;;;;;5093078;28;20494;-84
2023/09/22 12:48:21;;;;;;;1.80;0.40;;;17.70;99.90;;;;;;5093102;28;20447;-84
2023/09/22 12:50:55;;;;;;;0.50;0.47;;;17.70;99.90;;;;;;5093029;28;20436;-84
2023/09/22 12:53:21;;;;;;;0.70;0.53;;;17.70;99.90;;;;;;5096871;28;20448;-85